• Join FlightAware (Why Join?)
  • Login
  • US Flag 
12:42PM EDT


 

Airport Tracker/Info


-or-


 

Live Flight TrackerFlight Track Log ✈ N33819 ✈ 29-Jul-2013 ✈ KMKL - KDNV

Flight Track Log - Related Links

Times and Time Zones

All times are in EDT time to prevent confusion due to time zone crossing. See the N33819 flight status page for this flight to view local times or setup timezone preferences in your user account.

Time Position Orientation Groundspeed Altitude Reporting Facility
EDT Latitude Longitude Course Direction KTS MPH feet Rate Location/Type
07:16PM 35.8468 -88.8350 22° Northeast  Level FlightAware Approximate
07:16PM 35.7306 -88.8789 22° Northeast 170 196 3,200  Level Memphis Center
07:17PM 35.7700 -88.8681 13° North 156 180 3,700 420 Climbing Memphis Center
07:18PM 35.8117 -88.8569 12° North 156 180 4,100 360 Climbing Memphis Center
07:19PM 35.8575 -88.8458 11° North 156 180 4,500 360 Climbing Memphis Center
07:20PM 35.9031 -88.8347 11° North 162 186 4,900 360 Climbing Memphis Center
07:21PM 35.9447 -88.8236 12° North 162 186 5,300 360 Climbing Memphis Center
07:22PM 35.9906 -88.8100 14° North 162 186 5,700 480 Climbing Memphis Center
07:23PM 36.0361 -88.7939 16° North 162 186 6,300 540 Climbing Memphis Center
07:24PM 36.0797 -88.7800 14° North 162 186 6,800 360 Climbing Memphis Center
07:25PM 36.1253 -88.7664 14° North 162 186 7,100 120 Climbing Memphis Center
07:26PM 36.1814 -88.7497 13° North 167 192 7,100  Level Memphis Center
07:27PM 36.2272 -88.7361 13° North 167 192 7,100  Level Memphis Center
07:28PM 36.2750 -88.7247 11° North 167 192 7,100  Level Memphis Center
07:29PM 36.3247 -88.7136 10° North 167 192 7,100  Level Memphis Center
07:30PM 36.3728 -88.7022 11° North 167 192 7,100  Level Memphis Center
07:31PM 36.4206 -88.6908 11° North 167 192 7,100  Level Memphis Center
07:32PM 36.4661 -88.6797 11° North 167 192 7,100  Level Memphis Center
07:33PM 36.5139 -88.6683 11° North 167 192 7,100  Level Memphis Center
07:34PM 36.5597 -88.6569 11° North 167 192 7,100  Level Memphis Center
07:35PM 36.6075 -88.6458 11° North 167 192 7,100  Level Memphis Center
07:36PM 36.6531 -88.6319 14° North 167 192 7,100  Level Memphis Center
07:37PM 36.7008 -88.6206 11° North 162 186 7,100  Level Memphis Center
07:38PM 36.7486 -88.6064 13° North 162 186 7,100  Level Memphis Center
07:39PM 36.7942 -88.5950 11° North 162 186 7,100  Level Memphis Center
07:40PM 36.8400 -88.5811 14° North 162 186 7,100  Level Memphis Center
07:41PM 36.8878 -88.5672 13° North 162 186 7,100  Level Memphis Center
07:42PM 36.9353 -88.5531 13° North 162 186 7,100  Level Memphis Center
07:43PM 36.9831 -88.5389 13° North 162 186 7,100  Level Memphis Center
07:44PM 37.0289 -88.5275 11° North 162 186 7,100  Level Memphis Center
07:45PM 37.0764 -88.5108 16° North 162 186 7,100  Level Memphis Center
07:46PM 37.1219 -88.4942 16° North 162 186 7,100  Level Memphis Center
07:47PM 37.1719 -88.4853 North 162 186 7,100  Level Memphis Center
07:48PM 37.2156 -88.4711 15° North 167 192 7,100  Level Memphis Center
07:49PM 37.2631 -88.4597 11° North 162 186 7,100  Level Memphis Center
07:50PM 37.3089 -88.4428 16° North 162 186 7,100  Level Memphis Center
07:51PM 37.3544 -88.4286 14° North 162 186 7,100  Level Memphis Center
07:52PM 37.4000 -88.4144 14° North 162 186 7,100  Level Memphis Center
07:53PM 37.4456 -88.4003 14° North 162 186 7,100  Level Memphis Center
07:54PM 37.4933 -88.3861 13° North 162 186 7,100  Level Memphis Center
07:55PM 37.5275 -88.3742 15° North 167 192 7,100  Level Indianapolis Center
07:56PM 37.5744 -88.3608 13° North 169 194 7,100  Level Indianapolis Center
07:57PM 37.6278 -88.3436 14° North 167 192 7,100  Level Indianapolis Center
07:58PM 37.6733 -88.3289 14° North 167 192 7,100  Level Indianapolis Center
07:59PM 37.7186 -88.3150 14° North 167 192 7,100  Level Indianapolis Center
08:00PM 37.7628 -88.3019 13° North 165 190 7,100  Level Indianapolis Center
08:01PM 37.8086 -88.2892 12° North 166 191 7,100  Level Indianapolis Center
08:02PM 37.8539 -88.2739 15° North 167 192 7,100  Level Indianapolis Center
08:03PM 37.9006 -88.2636 10° North 168 193 7,100  Level Indianapolis Center
08:04PM 37.9436 -88.2500 14° North 164 189 7,100  Level Indianapolis Center
08:05PM 37.9889 -88.2372 13° North 164 189 7,100  Level Indianapolis Center
08:06PM 38.0353 -88.2250 12° North 167 192 7,100  Level Indianapolis Center
08:07PM 38.0889 -88.2100 12° North 166 191 7,100  Level Indianapolis Center
08:08PM 38.1336 -88.1981 12° North 164 189 7,100  Level Indianapolis Center
08:09PM 38.1783 -88.1856 12° North 164 189 7,100  Level Indianapolis Center
08:10PM 38.2250 -88.1725 12° North 166 191 7,100  Level Indianapolis Center
08:11PM 38.2703 -88.1600 12° North 166 191 7,100  Level Indianapolis Center
08:12PM 38.3158 -88.1467 13° North 167 192 7,100  Level Indianapolis Center
08:13PM 38.3619 -88.1353 11° North 167 192 7,100  Level Indianapolis Center
08:14PM 38.4083 -88.1225 12° North 168 193 7,100  Level Indianapolis Center
08:16PM 38.4547 -88.1108 11° North 168 193 7,100  Level Indianapolis Center
08:17PM 38.5017 -88.0997 10° North 169 194 7,100  Level Indianapolis Center
08:18PM 38.5567 -88.0839 13° North 169 194 7,100  Level Indianapolis Center
08:19PM 38.6031 -88.0706 13° North 169 194 7,100  Level Indianapolis Center
08:20PM 38.6503 -88.0572 12° North 170 196 7,100  Level Indianapolis Center
08:21PM 38.6981 -88.0456 11° North 172 198 7,100  Level Indianapolis Center
08:22PM 38.7456 -88.0336 11° North 172 198 7,100  Level Indianapolis Center
08:23PM 38.7925 -88.0219 11° North 172 198 7,100  Level Indianapolis Center
08:24PM 38.8392 -88.0108 11° North 170 196 7,100  Level Indianapolis Center
08:25PM 38.8858 -87.9994 11° North 170 196 7,100  Level Indianapolis Center
08:26PM 38.9325 -87.9867 12° North 169 194 7,100  Level Indianapolis Center
08:27PM 38.9800 -87.9739 12° North 171 197 7,100  Level Indianapolis Center
08:28PM 39.0350 -87.9589 12° North 169 194 7,100  Level Indianapolis Center
08:29PM 39.0817 -87.9458 12° North 170 196 7,100  Level Indianapolis Center
08:30PM 39.1275 -87.9319 13° North 169 194 7,100  Level Indianapolis Center
08:31PM 39.1742 -87.9175 13° North 170 196 7,100  Level Indianapolis Center
08:32PM 39.2206 -87.9031 14° North 171 197 7,100  Level Indianapolis Center
08:33PM 39.2675 -87.8872 15° North 172 198 7,100  Level Indianapolis Center
08:34PM 39.3131 -87.8717 15° North 170 196 7,100  Level Indianapolis Center
08:35PM 39.3592 -87.8575 13° North 171 197 7,100  Level Indianapolis Center
08:36PM 39.4097 -87.8397 15° North 173 199 7,100  Level Indianapolis Center
08:37PM 39.4567 -87.8256 13° North 174 200 7,100  Level Indianapolis Center
08:38PM 39.5031 -87.8125 12° North 172 198 7,100  Level Indianapolis Center
08:39PM 39.5489 -87.7964 15° North 171 197 7,100  Level Indianapolis Center
08:40PM 39.6044 -87.7778 14° North 172 198 7,100  Level Indianapolis Center
08:41PM 39.6508 -87.7628 14° North 172 198 7,100  Level Indianapolis Center
08:42PM 39.6972 -87.7483 13° North 171 197 7,100  Level Indianapolis Center
08:43PM 39.7439 -87.7331 14° North 173 199 7,100 -240 Level Indianapolis Center
08:44PM 39.7917 -87.7172 14° North 175 201 6,700 -480 Descending Indianapolis Center
08:45PM 39.8417 -87.7025 13° North 182 209 6,200 -540 Descending Indianapolis Center
08:46PM 39.8919 -87.6850 15° North 186 214 5,600 -900 Descending Indianapolis Center
08:47PM 39.9522 -87.6689 12° North 186 214 4,400 -900 Descending Indianapolis Center
08:48PM 39.9967 -87.6639 North 184 212 3,800 -600 Descending Indianapolis Center
08:50PM 40.1833 -87.5833 21° North  Level FlightAware Approximate
08:57PM 40.1997 -87.5955 21° North  Level Estimated
08:58PM 40.1997 -87.5955 21° North  Level Estimated